sensor_id;sensor_type;location;lat;lon;timestamp;P1;durP1;ratioP1;P2;durP2;ratioP2
20857;SDS011;10589;53.636;10.012;2022-09-09T03:45:52;95.63;;;41.33;;
20857;SDS011;10589;53.636;10.012;2022-09-09T03:48:21;89.03;;;39.47;;
20857;SDS011;10589;53.636;10.012;2022-09-09T03:50:48;100.10;;;41.53;;
20857;SDS011;10589;53.636;10.012;2022-09-09T03:53:16;86.47;;;38.63;;
20857;SDS011;10589;53.636;10.012;2022-09-09T03:55:45;90.70;;;38.67;;
20857;SDS011;10589;53.636;10.012;2022-09-09T03:58:16;85.03;;;36.90;;
20857;SDS011;10589;53.636;10.012;2022-09-09T04:00:43;68.43;;;34.00;;
20857;SDS011;10589;53.636;10.012;2022-09-09T04:03:18;77.00;;;35.80;;
20857;SDS011;10589;53.636;10.012;2022-09-09T04:05:44;87.43;;;37.80;;
20857;SDS011;10589;53.636;10.012;2022-09-09T04:08:09;83.60;;;37.57;;
20857;SDS011;10589;53.636;10.012;2022-09-09T04:10:36;70.23;;;33.37;;
20857;SDS011;10589;53.636;10.012;2022-09-09T04:13:02;70.00;;;34.20;;
20857;SDS011;10589;53.636;10.012;2022-09-09T04:15:29;92.17;;;37.77;;
20857;SDS011;10589;53.636;10.012;2022-09-09T04:17:55;86.20;;;38.57;;
20857;SDS011;10589;53.636;10.012;2022-09-09T04:20:20;77.77;;;35.10;;
20857;SDS011;10589;53.636;10.012;2022-09-09T04:22:47;71.77;;;32.60;;
20857;SDS011;10589;53.636;10.012;2022-09-09T04:25:13;93.63;;;38.17;;
20857;SDS011;10589;53.636;10.012;2022-09-09T04:27:38;87.07;;;37.23;;
20857;SDS011;10589;53.636;10.012;2022-09-09T04:30:04;89.20;;;37.07;;
20857;SDS011;10589;53.636;10.012;2022-09-09T04:32:32;77.83;;;36.87;;
20857;SDS011;10589;53.636;10.012;2022-09-09T04:34:58;69.97;;;33.43;;
20857;SDS011;10589;53.636;10.012;2022-09-09T04:37:24;78.40;;;34.30;;
20857;SDS011;10589;53.636;10.012;2022-09-09T04:39:49;72.67;;;32.97;;
20857;SDS011;10589;53.636;10.012;2022-09-09T04:42:15;79.30;;;34.20;;
20857;SDS011;10589;53.636;10.012;2022-09-09T04:44:42;81.47;;;34.50;;
20857;SDS011;10589;53.636;10.012;2022-09-09T04:47:09;73.37;;;32.97;;
20857;SDS011;10589;53.636;10.012;2022-09-09T04:49:35;69.90;;;33.03;;
20857;SDS011;10589;53.636;10.012;2022-09-09T04:52:02;66.80;;;32.17;;
20857;SDS011;10589;53.636;10.012;2022-09-09T04:54:28;82.17;;;35.47;;
20857;SDS011;10589;53.636;10.012;2022-09-09T04:56:54;73.93;;;32.90;;
20857;SDS011;10589;53.636;10.012;2022-09-09T04:59:20;66.30;;;30.60;;
20857;SDS011;10589;53.636;10.012;2022-09-09T05:01:46;72.67;;;32.30;;
20857;SDS011;10589;53.636;10.012;2022-09-09T05:04:13;64.70;;;31.90;;
20857;SDS011;10589;53.636;10.012;2022-09-09T05:06:40;56.20;;;28.53;;
20857;SDS011;10589;53.636;10.012;2022-09-09T05:09:06;55.60;;;28.63;;
20857;SDS011;10589;53.636;10.012;2022-09-09T05:11:32;57.93;;;29.23;;
20857;SDS011;10589;53.636;10.012;2022-09-09T05:14:01;53.40;;;26.80;;
20857;SDS011;10589;53.636;10.012;2022-09-09T05:16:26;44.37;;;25.30;;
20857;SDS011;10589;53.636;10.012;2022-09-09T05:18:52;52.40;;;26.90;;
20857;SDS011;10589;53.636;10.012;2022-09-09T05:21:18;47.70;;;25.53;;
20857;SDS011;10589;53.636;10.012;2022-09-09T05:23:45;39.17;;;22.53;;
20857;SDS011;10589;53.636;10.012;2022-09-09T05:26:12;47.87;;;24.37;;
20857;SDS011;10589;53.636;10.012;2022-09-09T05:28:39;49.30;;;24.70;;
20857;SDS011;10589;53.636;10.012;2022-09-09T05:31:06;43.80;;;24.13;;
20857;SDS011;10589;53.636;10.012;2022-09-09T05:33:34;36.87;;;20.50;;
20857;SDS011;10589;53.636;10.012;2022-09-09T05:36:01;34.63;;;20.77;;
20857;SDS011;10589;53.636;10.012;2022-09-09T05:38:29;42.20;;;22.17;;
20857;SDS011;10589;53.636;10.012;2022-09-09T05:41:01;42.93;;;22.90;;
20857;SDS011;10589;53.636;10.012;2022-09-09T05:43:27;42.23;;;23.47;;
20857;SDS011;10589;53.636;10.012;2022-09-09T05:46:27;34.30;;;20.33;;
20857;SDS011;10589;53.636;10.012;2022-09-09T05:48:47;40.20;;;21.73;;
20857;SDS011;10589;53.636;10.012;2022-09-09T05:51:16;33.60;;;19.90;;
20857;SDS011;10589;53.636;10.012;2022-09-09T05:53:44;40.17;;;21.07;;
20857;SDS011;10589;53.636;10.012;2022-09-09T05:56:12;37.93;;;22.13;;
20857;SDS011;10589;53.636;10.012;2022-09-09T05:58:39;36.97;;;22.73;;
20857;SDS011;10589;53.636;10.012;2022-09-09T06:01:28;41.77;;;23.07;;
20857;SDS011;10589;53.636;10.012;2022-09-09T06:03:55;36.23;;;21.03;;
20857;SDS011;10589;53.636;10.012;2022-09-09T06:06:30;42.73;;;24.37;;
20857;SDS011;10589;53.636;10.012;2022-09-09T06:09:00;46.10;;;24.43;;
20857;SDS011;10589;53.636;10.012;2022-09-09T06:11:28;36.73;;;21.83;;
20857;SDS011;10589;53.636;10.012;2022-09-09T06:13:56;38.60;;;22.43;;
20857;SDS011;10589;53.636;10.012;2022-09-09T06:16:22;37.87;;;21.43;;
20857;SDS011;10589;53.636;10.012;2022-09-09T06:18:50;32.13;;;20.93;;
20857;SDS011;10589;53.636;10.012;2022-09-09T06:21:19;38.30;;;21.40;;
20857;SDS011;10589;53.636;10.012;2022-09-09T06:23:46;25.87;;;17.47;;
20857;SDS011;10589;53.636;10.012;2022-09-09T06:26:17;26.90;;;18.07;;
20857;SDS011;10589;53.636;10.012;2022-09-09T06:28:44;23.57;;;15.60;;
20857;SDS011;10589;53.636;10.012;2022-09-09T06:31:12;24.27;;;17.17;;
20857;SDS011;10589;53.636;10.012;2022-09-09T06:33:42;27.13;;;17.23;;
20857;SDS011;10589;53.636;10.012;2022-09-09T06:36:10;21.80;;;15.30;;
20857;SDS011;10589;53.636;10.012;2022-09-09T06:38:39;25.53;;;16.53;;
20857;SDS011;10589;53.636;10.012;2022-09-09T06:41:10;18.83;;;13.93;;
20857;SDS011;10589;53.636;10.012;2022-09-09T06:43:38;19.00;;;14.00;;
20857;SDS011;10589;53.636;10.012;2022-09-09T06:48:35;23.27;;;14.77;;
20857;SDS011;10589;53.636;10.012;2022-09-09T06:53:33;15.83;;;12.83;;
20857;SDS011;10589;53.636;10.012;2022-09-09T06:56:00;18.67;;;13.27;;
20857;SDS011;10589;53.636;10.012;2022-09-09T06:58:27;16.07;;;12.63;;
20857;SDS011;10589;53.636;10.012;2022-09-09T07:01:01;14.77;;;12.07;;
20857;SDS011;10589;53.636;10.012;2022-09-09T07:03:30;15.67;;;11.13;;
20857;SDS011;10589;53.636;10.012;2022-09-09T07:05:56;14.30;;;11.57;;
20857;SDS011;10589;53.636;10.012;2022-09-09T07:08:22;11.03;;;9.40;;
20857;SDS011;10589;53.636;10.012;2022-09-09T07:10:49;14.37;;;10.70;;
20857;SDS011;10589;53.636;10.012;2022-09-09T07:13:18;14.53;;;10.20;;
20857;SDS011;10589;53.636;10.012;2022-09-09T07:15:50;13.73;;;9.00;;
20857;SDS011;10589;53.636;10.012;2022-09-09T07:18:16;13.63;;;9.18;;
20857;SDS011;10589;53.636;10.012;2022-09-09T07:20:42;13.20;;;9.80;;
20857;SDS011;10589;53.636;10.012;2022-09-09T07:23:08;10.67;;;8.37;;
20857;SDS011;10589;53.636;10.012;2022-09-09T07:25:33;12.67;;;7.97;;
20857;SDS011;10589;53.636;10.012;2022-09-09T07:27:59;14.03;;;7.83;;
20857;SDS011;10589;53.636;10.012;2022-09-09T07:30:25;9.82;;;6.38;;
20857;SDS011;10589;53.636;10.012;2022-09-09T07:32:51;12.25;;;7.22;;
20857;SDS011;10589;53.636;10.012;2022-09-09T07:35:17;10.50;;;6.43;;
20857;SDS011;10589;53.636;10.012;2022-09-09T07:37:43;8.48;;;6.85;;
20857;SDS011;10589;53.636;10.012;2022-09-09T07:40:10;7.28;;;5.65;;
20857;SDS011;10589;53.636;10.012;2022-09-09T07:42:35;8.18;;;6.40;;
20857;SDS011;10589;53.636;10.012;2022-09-09T07:45:02;7.25;;;6.50;;
20857;SDS011;10589;53.636;10.012;2022-09-09T07:47:28;7.32;;;6.00;;
20857;SDS011;10589;53.636;10.012;2022-09-09T07:49:54;6.82;;;5.43;;
20857;SDS011;10589;53.636;10.012;2022-09-09T07:52:20;10.50;;;6.57;;
20857;SDS011;10589;53.636;10.012;2022-09-09T07:54:46;5.88;;;4.63;;
20857;SDS011;10589;53.636;10.012;2022-09-09T07:57:12;7.57;;;5.40;;
20857;SDS011;10589;53.636;10.012;2022-09-09T07:59:37;5.88;;;5.03;;
20857;SDS011;10589;53.636;10.012;2022-09-09T08:02:03;5.90;;;4.80;;
20857;SDS011;10589;53.636;10.012;2022-09-09T08:04:29;6.28;;;5.07;;
20857;SDS011;10589;53.636;10.012;2022-09-09T08:06:56;8.63;;;4.90;;
20857;SDS011;10589;53.636;10.012;2022-09-09T08:09:23;8.65;;;5.47;;
20857;SDS011;10589;53.636;10.012;2022-09-09T08:11:54;9.48;;;5.15;;
20857;SDS011;10589;53.636;10.012;2022-09-09T08:14:21;5.78;;;5.07;;
20857;SDS011;10589;53.636;10.012;2022-09-09T08:16:48;6.03;;;5.10;;
20857;SDS011;10589;53.636;10.012;2022-09-09T08:19:14;8.77;;;4.82;;
20857;SDS011;10589;53.636;10.012;2022-09-09T08:21:41;5.57;;;4.55;;
20857;SDS011;10589;53.636;10.012;2022-09-09T08:24:09;8.77;;;4.60;;
20857;SDS011;10589;53.636;10.012;2022-09-09T08:26:42;5.60;;;3.25;;
20857;SDS011;10589;53.636;10.012;2022-09-09T08:29:10;6.53;;;3.33;;
20857;SDS011;10589;53.636;10.012;2022-09-09T08:31:48;5.65;;;3.55;;
20857;SDS011;10589;53.636;10.012;2022-09-09T08:34:16;6.35;;;3.00;;
20857;SDS011;10589;53.636;10.012;2022-09-09T08:36:45;5.82;;;2.22;;
20857;SDS011;10589;53.636;10.012;2022-09-09T08:39:12;6.97;;;3.47;;
20857;SDS011;10589;53.636;10.012;2022-09-09T08:52:25;6.75;;;4.30;;
20857;SDS011;10589;53.636;10.012;2022-09-09T08:54:59;7.38;;;3.78;;
20857;SDS011;10589;53.636;10.012;2022-09-09T08:57:37;6.00;;;3.90;;
20857;SDS011;10589;53.636;10.012;2022-09-09T09:00:04;5.22;;;3.05;;
20857;SDS011;10589;53.636;10.012;2022-09-09T09:02:39;7.97;;;4.00;;
20857;SDS011;10589;53.636;10.012;2022-09-09T09:10:15;8.23;;;4.13;;
20857;SDS011;10589;53.636;10.012;2022-09-09T09:12:47;6.70;;;3.88;;
20857;SDS011;10589;53.636;10.012;2022-09-09T09:15:16;4.88;;;3.30;;
20857;SDS011;10589;53.636;10.012;2022-09-09T09:17:46;5.68;;;3.38;;
20857;SDS011;10589;53.636;10.012;2022-09-09T09:20:13;7.10;;;3.63;;
20857;SDS011;10589;53.636;10.012;2022-09-09T09:25:20;3.47;;;2.50;;
20857;SDS011;10589;53.636;10.012;2022-09-09T09:30:54;4.57;;;2.95;;
20857;SDS011;10589;53.636;10.012;2022-09-09T09:33:38;4.43;;;2.55;;
20857;SDS011;10589;53.636;10.012;2022-09-09T09:36:12;3.53;;;2.30;;
20857;SDS011;10589;53.636;10.012;2022-09-09T09:38:40;4.78;;;2.30;;
20857;SDS011;10589;53.636;10.012;2022-09-09T09:41:37;6.70;;;2.65;;
20857;SDS011;10589;53.636;10.012;2022-09-09T09:44:06;4.53;;;2.97;;
20857;SDS011;10589;53.636;10.012;2022-09-09T09:46:50;4.20;;;2.45;;
20857;SDS011;10589;53.636;10.012;2022-09-09T09:49:16;6.72;;;2.55;;
20857;SDS011;10589;53.636;10.012;2022-09-09T09:51:42;6.35;;;2.47;;
20857;SDS011;10589;53.636;10.012;2022-09-09T09:54:22;5.00;;;2.50;;
20857;SDS011;10589;53.636;10.012;2022-09-09T09:56:53;10.43;;;3.28;;
20857;SDS011;10589;53.636;10.012;2022-09-09T09:59:20;5.25;;;2.60;;
20857;SDS011;10589;53.636;10.012;2022-09-09T10:01:52;7.88;;;2.30;;
20857;SDS011;10589;53.636;10.012;2022-09-09T10:04:21;4.50;;;1.70;;
20857;SDS011;10589;53.636;10.012;2022-09-09T10:06:51;3.08;;;1.42;;
20857;SDS011;10589;53.636;10.012;2022-09-09T10:09:24;2.45;;;1.30;;
20857;SDS011;10589;53.636;10.012;2022-09-09T10:14:38;5.07;;;1.60;;
20857;SDS011;10589;53.636;10.012;2022-09-09T10:17:23;4.38;;;1.63;;
20857;SDS011;10589;53.636;10.012;2022-09-09T10:22:43;3.90;;;1.55;;
20857;SDS011;10589;53.636;10.012;2022-09-09T10:25:20;3.60;;;1.20;;
20857;SDS011;10589;53.636;10.012;2022-09-09T10:30:54;3.50;;;1.20;;
20857;SDS011;10589;53.636;10.012;2022-09-09T10:33:27;5.45;;;1.15;;
20857;SDS011;10589;53.636;10.012;2022-09-09T10:38:37;1.63;;;1.02;;
20857;SDS011;10589;53.636;10.012;2022-09-09T10:41:18;1.70;;;1.00;;
20857;SDS011;10589;53.636;10.012;2022-09-09T10:46:46;3.20;;;1.13;;
20857;SDS011;10589;53.636;10.012;2022-09-09T10:57:28;5.97;;;0.98;;
20857;SDS011;10589;53.636;10.012;2022-09-09T10:59:58;2.08;;;0.95;;
20857;SDS011;10589;53.636;10.012;2022-09-09T11:02:31;4.03;;;1.10;;
20857;SDS011;10589;53.636;10.012;2022-09-09T11:07:40;2.35;;;0.98;;
20857;SDS011;10589;53.636;10.012;2022-09-09T11:10:42;3.50;;;1.10;;
20857;SDS011;10589;53.636;10.012;2022-09-09T11:13:09;2.83;;;0.95;;
20857;SDS011;10589;53.636;10.012;2022-09-09T11:15:51;2.53;;;1.00;;
20857;SDS011;10589;53.636;10.012;2022-09-09T11:18:20;2.75;;;0.93;;
20857;SDS011;10589;53.636;10.012;2022-09-09T11:20:48;4.50;;;1.00;;
20857;SDS011;10589;53.636;10.012;2022-09-09T11:23:20;2.75;;;0.88;;
20857;SDS011;10589;53.636;10.012;2022-09-09T11:25:55;6.38;;;1.10;;
20857;SDS011;10589;53.636;10.012;2022-09-09T11:33:58;1.73;;;0.70;;
20857;SDS011;10589;53.636;10.012;2022-09-09T11:42:12;1.98;;;0.90;;
20857;SDS011;10589;53.636;10.012;2022-09-09T11:44:42;2.53;;;0.85;;
20857;SDS011;10589;53.636;10.012;2022-09-09T11:49:55;4.90;;;0.98;;
20857;SDS011;10589;53.636;10.012;2022-09-09T11:52:40;2.40;;;0.70;;
20857;SDS011;10589;53.636;10.012;2022-09-09T11:55:26;2.25;;;1.02;;
20857;SDS011;10589;53.636;10.012;2022-09-09T11:58:02;2.58;;;1.20;;
20857;SDS011;10589;53.636;10.012;2022-09-09T12:03:08;2.67;;;0.90;;
20857;SDS011;10589;53.636;10.012;2022-09-09T12:06:18;4.55;;;1.02;;
20857;SDS011;10589;53.636;10.012;2022-09-09T12:09:07;2.13;;;1.00;;
20857;SDS011;10589;53.636;10.012;2022-09-09T12:11:39;4.05;;;1.20;;
20857;SDS011;10589;53.636;10.012;2022-09-09T12:14:17;3.50;;;1.10;;
20857;SDS011;10589;53.636;10.012;2022-09-09T12:16:48;2.90;;;1.10;;
20857;SDS011;10589;53.636;10.012;2022-09-09T12:19:16;5.72;;;1.15;;
20857;SDS011;10589;53.636;10.012;2022-09-09T12:22:03;4.53;;;1.40;;
20857;SDS011;10589;53.636;10.012;2022-09-09T12:27:44;4.82;;;0.73;;
20857;SDS011;10589;53.636;10.012;2022-09-09T12:30:22;3.67;;;1.10;;
20857;SDS011;10589;53.636;10.012;2022-09-09T12:33:00;3.67;;;1.20;;
20857;SDS011;10589;53.636;10.012;2022-09-09T12:35:27;3.33;;;0.95;;
20857;SDS011;10589;53.636;10.012;2022-09-09T12:37:56;3.13;;;0.95;;
20857;SDS011;10589;53.636;10.012;2022-09-09T12:40:29;2.95;;;1.10;;
20857;SDS011;10589;53.636;10.012;2022-09-09T12:42:57;3.65;;;1.25;;
20857;SDS011;10589;53.636;10.012;2022-09-09T12:45:27;5.50;;;1.30;;
20857;SDS011;10589;53.636;10.012;2022-09-09T12:50:33;8.35;;;1.55;;
20857;SDS011;10589;53.636;10.012;2022-09-09T12:53:35;6.32;;;1.85;;
20857;SDS011;10589;53.636;10.012;2022-09-09T12:56:00;6.97;;;2.42;;
20857;SDS011;10589;53.636;10.012;2022-09-09T12:58:30;4.10;;;1.67;;
20857;SDS011;10589;53.636;10.012;2022-09-09T13:01:00;4.22;;;2.00;;
20857;SDS011;10589;53.636;10.012;2022-09-09T13:03:30;4.75;;;1.55;;
20857;SDS011;10589;53.636;10.012;2022-09-09T13:06:10;6.47;;;1.92;;
20857;SDS011;10589;53.636;10.012;2022-09-09T13:08:39;4.70;;;2.05;;
20857;SDS011;10589;53.636;10.012;2022-09-09T13:11:10;11.52;;;2.40;;
20857;SDS011;10589;53.636;10.012;2022-09-09T13:13:41;4.10;;;1.83;;
20857;SDS011;10589;53.636;10.012;2022-09-09T13:16:18;4.88;;;2.15;;
20857;SDS011;10589;53.636;10.012;2022-09-09T13:18:55;3.03;;;1.83;;
20857;SDS011;10589;53.636;10.012;2022-09-09T13:21:30;5.13;;;2.20;;
20857;SDS011;10589;53.636;10.012;2022-09-09T13:23:59;3.60;;;2.47;;
20857;SDS011;10589;53.636;10.012;2022-09-09T13:26:28;5.63;;;2.35;;
20857;SDS011;10589;53.636;10.012;2022-09-09T13:28:55;4.03;;;1.80;;
20857;SDS011;10589;53.636;10.012;2022-09-09T13:31:39;5.45;;;2.40;;
20857;SDS011;10589;53.636;10.012;2022-09-09T13:34:26;4.25;;;2.90;;
20857;SDS011;10589;53.636;10.012;2022-09-09T13:36:54;3.63;;;2.30;;
20857;SDS011;10589;53.636;10.012;2022-09-09T13:39:27;6.93;;;2.67;;
20857;SDS011;10589;53.636;10.012;2022-09-09T13:41:53;14.52;;;4.35;;
20857;SDS011;10589;53.636;10.012;2022-09-09T13:44:24;8.55;;;4.07;;
20857;SDS011;10589;53.636;10.012;2022-09-09T13:49:31;6.53;;;3.88;;
20857;SDS011;10589;53.636;10.012;2022-09-09T13:52:17;6.93;;;3.55;;
20857;SDS011;10589;53.636;10.012;2022-09-09T13:54:50;9.77;;;4.78;;
20857;SDS011;10589;53.636;10.012;2022-09-09T13:57:18;8.53;;;4.50;;
20857;SDS011;10589;53.636;10.012;2022-09-09T13:59:46;6.83;;;3.90;;
20857;SDS011;10589;53.636;10.012;2022-09-09T14:02:12;5.90;;;3.20;;
20857;SDS011;10589;53.636;10.012;2022-09-09T14:04:39;4.60;;;3.43;;
20857;SDS011;10589;53.636;10.012;2022-09-09T14:07:07;7.63;;;3.47;;
20857;SDS011;10589;53.636;10.012;2022-09-09T14:09:38;5.00;;;3.90;;
20857;SDS011;10589;53.636;10.012;2022-09-09T14:12:04;7.60;;;3.97;;
20857;SDS011;10589;53.636;10.012;2022-09-09T14:14:30;5.83;;;4.03;;
20857;SDS011;10589;53.636;10.012;2022-09-09T14:16:55;6.13;;;3.80;;
20857;SDS011;10589;53.636;10.012;2022-09-09T14:19:21;8.13;;;4.87;;
20857;SDS011;10589;53.636;10.012;2022-09-09T14:21:47;6.35;;;4.47;;
20857;SDS011;10589;53.636;10.012;2022-09-09T14:24:13;10.20;;;4.83;;
20857;SDS011;10589;53.636;10.012;2022-09-09T14:26:39;8.63;;;5.30;;
20857;SDS011;10589;53.636;10.012;2022-09-09T14:29:05;8.48;;;4.97;;
20857;SDS011;10589;53.636;10.012;2022-09-09T14:31:31;12.67;;;6.27;;
20857;SDS011;10589;53.636;10.012;2022-09-09T14:33:57;5.67;;;5.03;;
20857;SDS011;10589;53.636;10.012;2022-09-09T14:36:23;9.13;;;5.90;;
20857;SDS011;10589;53.636;10.012;2022-09-09T14:38:49;7.17;;;5.60;;
20857;SDS011;10589;53.636;10.012;2022-09-09T14:41:17;5.35;;;4.82;;
20857;SDS011;10589;53.636;10.012;2022-09-09T14:43:45;8.63;;;4.83;;
20857;SDS011;10589;53.636;10.012;2022-09-09T14:46:12;6.78;;;5.00;;
20857;SDS011;10589;53.636;10.012;2022-09-09T14:48:39;7.40;;;6.03;;
20857;SDS011;10589;53.636;10.012;2022-09-09T14:51:12;8.25;;;5.85;;
20857;SDS011;10589;53.636;10.012;2022-09-09T14:53:40;9.88;;;6.70;;
20857;SDS011;10589;53.636;10.012;2022-09-09T14:56:11;8.98;;;6.20;;
20857;SDS011;10589;53.636;10.012;2022-09-09T14:58:39;8.80;;;6.18;;
20857;SDS011;10589;53.636;10.012;2022-09-09T15:01:06;7.22;;;4.32;;
20857;SDS011;10589;53.636;10.012;2022-09-09T15:03:36;6.90;;;3.90;;
20857;SDS011;10589;53.636;10.012;2022-09-09T15:06:07;3.83;;;2.40;;
20857;SDS011;10589;53.636;10.012;2022-09-09T15:08:33;4.27;;;2.87;;
20857;SDS011;10589;53.636;10.012;2022-09-09T15:11:03;4.60;;;2.27;;
20857;SDS011;10589;53.636;10.012;2022-09-09T15:13:30;5.10;;;3.10;;
20857;SDS011;10589;53.636;10.012;2022-09-09T15:15:55;4.33;;;3.13;;
20857;SDS011;10589;53.636;10.012;2022-09-09T15:18:27;4.93;;;3.57;;
20857;SDS011;10589;53.636;10.012;2022-09-09T15:20:54;5.03;;;3.60;;
20857;SDS011;10589;53.636;10.012;2022-09-09T15:23:19;6.78;;;3.50;;
20857;SDS011;10589;53.636;10.012;2022-09-09T15:25:52;8.60;;;3.90;;
20857;SDS011;10589;53.636;10.012;2022-09-09T15:28:18;5.90;;;4.13;;
20857;SDS011;10589;53.636;10.012;2022-09-09T15:30:46;6.28;;;3.60;;
20857;SDS011;10589;53.636;10.012;2022-09-09T15:33:13;5.20;;;3.70;;
20857;SDS011;10589;53.636;10.012;2022-09-09T15:35:39;5.00;;;3.60;;
20857;SDS011;10589;53.636;10.012;2022-09-09T15:38:04;5.53;;;3.30;;
20857;SDS011;10589;53.636;10.012;2022-09-09T15:40:30;4.10;;;2.70;;
20857;SDS011;10589;53.636;10.012;2022-09-09T15:42:57;2.72;;;2.42;;
20857;SDS011;10589;53.636;10.012;2022-09-09T15:45:23;5.05;;;2.25;;
20857;SDS011;10589;53.636;10.012;2022-09-09T15:47:49;5.15;;;2.58;;
20857;SDS011;10589;53.636;10.012;2022-09-09T15:50:15;3.10;;;2.27;;
20857;SDS011;10589;53.636;10.012;2022-09-09T15:52:40;3.85;;;1.80;;
20857;SDS011;10589;53.636;10.012;2022-09-09T15:55:06;2.50;;;1.85;;
20857;SDS011;10589;53.636;10.012;2022-09-09T15:57:33;4.15;;;2.17;;
20857;SDS011;10589;53.636;10.012;2022-09-09T15:59:59;4.55;;;1.85;;
20857;SDS011;10589;53.636;10.012;2022-09-09T16:02:25;3.67;;;1.80;;
20857;SDS011;10589;53.636;10.012;2022-09-09T16:04:51;5.70;;;1.70;;
20857;SDS011;10589;53.636;10.012;2022-09-09T16:07:17;4.18;;;1.73;;
20857;SDS011;10589;53.636;10.012;2022-09-09T16:09:42;3.55;;;1.73;;
20857;SDS011;10589;53.636;10.012;2022-09-09T16:12:08;2.20;;;1.55;;
20857;SDS011;10589;53.636;10.012;2022-09-09T16:14:38;4.07;;;1.80;;
20857;SDS011;10589;53.636;10.012;2022-09-09T16:17:04;2.85;;;1.73;;
20857;SDS011;10589;53.636;10.012;2022-09-09T16:19:31;3.55;;;1.38;;
20857;SDS011;10589;53.636;10.012;2022-09-09T16:21:57;2.45;;;1.52;;
20857;SDS011;10589;53.636;10.012;2022-09-09T16:24:23;4.88;;;1.52;;
20857;SDS011;10589;53.636;10.012;2022-09-09T16:26:50;2.53;;;1.30;;
20857;SDS011;10589;53.636;10.012;2022-09-09T16:29:18;2.05;;;1.15;;
20857;SDS011;10589;53.636;10.012;2022-09-09T16:31:44;1.83;;;1.10;;
20857;SDS011;10589;53.636;10.012;2022-09-09T16:34:12;2.22;;;1.10;;
20857;SDS011;10589;53.636;10.012;2022-09-09T16:36:38;2.97;;;1.40;;
20857;SDS011;10589;53.636;10.012;2022-09-09T16:39:06;2.95;;;1.30;;
20857;SDS011;10589;53.636;10.012;2022-09-09T16:41:34;2.83;;;1.15;;
20857;SDS011;10589;53.636;10.012;2022-09-09T16:44:01;2.78;;;1.33;;
20857;SDS011;10589;53.636;10.012;2022-09-09T16:46:32;6.65;;;2.13;;
20857;SDS011;10589;53.636;10.012;2022-09-09T16:49:00;3.05;;;1.70;;
20857;SDS011;10589;53.636;10.012;2022-09-09T16:51:28;4.25;;;1.30;;
20857;SDS011;10589;53.636;10.012;2022-09-09T16:53:58;5.70;;;1.52;;
20857;SDS011;10589;53.636;10.012;2022-09-09T16:56:26;4.60;;;1.75;;
20857;SDS011;10589;53.636;10.012;2022-09-09T16:58:54;3.75;;;1.13;;
20857;SDS011;10589;53.636;10.012;2022-09-09T17:01:26;2.42;;;1.33;;
20857;SDS011;10589;53.636;10.012;2022-09-09T17:04:01;4.05;;;1.70;;
20857;SDS011;10589;53.636;10.012;2022-09-09T17:06:29;2.65;;;1.30;;
20857;SDS011;10589;53.636;10.012;2022-09-09T17:08:57;2.38;;;1.30;;
20857;SDS011;10589;53.636;10.012;2022-09-09T17:11:24;1.98;;;1.30;;
20857;SDS011;10589;53.636;10.012;2022-09-09T17:13:50;2.25;;;1.23;;
20857;SDS011;10589;53.636;10.012;2022-09-09T17:16:18;2.03;;;1.20;;
20857;SDS011;10589;53.636;10.012;2022-09-09T17:18:48;2.10;;;1.35;;
20857;SDS011;10589;53.636;10.012;2022-09-09T17:21:16;1.83;;;1.30;;
20857;SDS011;10589;53.636;10.012;2022-09-09T17:23:43;3.90;;;1.90;;
20857;SDS011;10589;53.636;10.012;2022-09-09T17:26:10;3.55;;;1.67;;
20857;SDS011;10589;53.636;10.012;2022-09-09T17:28:37;2.67;;;1.50;;
20857;SDS011;10589;53.636;10.012;2022-09-09T17:31:04;2.00;;;1.50;;
20857;SDS011;10589;53.636;10.012;2022-09-09T17:33:36;2.45;;;1.90;;
20857;SDS011;10589;53.636;10.012;2022-09-09T17:36:10;4.07;;;1.77;;
20857;SDS011;10589;53.636;10.012;2022-09-09T17:38:50;3.67;;;1.77;;
20857;SDS011;10589;53.636;10.012;2022-09-09T17:41:29;2.80;;;1.60;;
20857;SDS011;10589;53.636;10.012;2022-09-09T17:43:57;2.92;;;1.98;;
20857;SDS011;10589;53.636;10.012;2022-09-09T17:46:27;3.05;;;2.00;;
20857;SDS011;10589;53.636;10.012;2022-09-09T17:48:58;2.22;;;1.88;;
20857;SDS011;10589;53.636;10.012;2022-09-09T17:51:26;1.70;;;1.33;;
20857;SDS011;10589;53.636;10.012;2022-09-09T17:53:55;4.63;;;2.10;;
20857;SDS011;10589;53.636;10.012;2022-09-09T17:56:24;2.25;;;2.05;;
20857;SDS011;10589;53.636;10.012;2022-09-09T17:58:51;1.97;;;1.87;;
20857;SDS011;10589;53.636;10.012;2022-09-09T18:01:19;2.20;;;2.00;;
20857;SDS011;10589;53.636;10.012;2022-09-09T18:03:46;3.60;;;2.50;;
20857;SDS011;10589;53.636;10.012;2022-09-09T18:06:14;2.80;;;2.10;;
20857;SDS011;10589;53.636;10.012;2022-09-09T18:08:48;3.40;;;3.10;;
20857;SDS011;10589;53.636;10.012;2022-09-09T18:11:16;3.40;;;2.90;;
20857;SDS011;10589;53.636;10.012;2022-09-09T18:13:47;3.10;;;2.70;;
20857;SDS011;10589;53.636;10.012;2022-09-09T18:16:27;5.53;;;3.70;;
20857;SDS011;10589;53.636;10.012;2022-09-09T18:18:55;3.53;;;3.23;;
20857;SDS011;10589;53.636;10.012;2022-09-09T18:21:28;8.40;;;3.73;;
20857;SDS011;10589;53.636;10.012;2022-09-09T18:23:58;6.00;;;3.43;;
20857;SDS011;10589;53.636;10.012;2022-09-09T18:26:25;5.07;;;3.03;;
20857;SDS011;10589;53.636;10.012;2022-09-09T18:28:55;4.00;;;3.50;;
20857;SDS011;10589;53.636;10.012;2022-09-09T18:31:23;3.40;;;3.10;;
20857;SDS011;10589;53.636;10.012;2022-09-09T18:33:51;4.57;;;3.70;;
20857;SDS011;10589;53.636;10.012;2022-09-09T18:36:19;4.67;;;3.33;;
20857;SDS011;10589;53.636;10.012;2022-09-09T18:38:47;4.70;;;3.63;;
20857;SDS011;10589;53.636;10.012;2022-09-09T18:41:14;6.30;;;3.97;;
20857;SDS011;10589;53.636;10.012;2022-09-09T18:43:47;6.60;;;5.50;;
20857;SDS011;10589;53.636;10.012;2022-09-09T18:46:14;6.47;;;4.70;;
20857;SDS011;10589;53.636;10.012;2022-09-09T18:48:41;5.13;;;4.63;;
20857;SDS011;10589;53.636;10.012;2022-09-09T18:51:09;6.97;;;5.40;;
20857;SDS011;10589;53.636;10.012;2022-09-09T18:53:36;7.17;;;5.27;;
20857;SDS011;10589;53.636;10.012;2022-09-09T18:56:04;5.57;;;5.07;;
20857;SDS011;10589;53.636;10.012;2022-09-09T18:58:32;6.10;;;4.93;;
20857;SDS011;10589;53.636;10.012;2022-09-09T19:00:59;6.03;;;5.43;;
20857;SDS011;10589;53.636;10.012;2022-09-09T19:03:26;9.17;;;5.07;;
20857;SDS011;10589;53.636;10.012;2022-09-09T19:05:52;6.57;;;5.47;;
20857;SDS011;10589;53.636;10.012;2022-09-09T19:08:24;9.63;;;7.30;;
20857;SDS011;10589;53.636;10.012;2022-09-09T19:10:50;9.83;;;7.63;;
20857;SDS011;10589;53.636;10.012;2022-09-09T19:13:16;8.70;;;6.90;;
20857;SDS011;10589;53.636;10.012;2022-09-09T19:15:41;9.83;;;8.13;;
20857;SDS011;10589;53.636;10.012;2022-09-09T19:18:07;8.23;;;7.00;;
20857;SDS011;10589;53.636;10.012;2022-09-09T19:20:33;9.50;;;7.47;;
20857;SDS011;10589;53.636;10.012;2022-09-09T19:22:58;9.40;;;8.10;;
20857;SDS011;10589;53.636;10.012;2022-09-09T19:25:24;11.77;;;7.27;;
20857;SDS011;10589;53.636;10.012;2022-09-09T19:27:50;10.77;;;7.47;;
20857;SDS011;10589;53.636;10.012;2022-09-09T19:30:16;10.53;;;7.90;;
20857;SDS011;10589;53.636;10.012;2022-09-09T19:32:42;9.47;;;8.07;;
20857;SDS011;10589;53.636;10.012;2022-09-09T19:35:08;9.90;;;7.53;;
20857;SDS011;10589;53.636;10.012;2022-09-09T19:37:35;8.13;;;7.23;;
20857;SDS011;10589;53.636;10.012;2022-09-09T19:40:01;9.47;;;7.43;;
20857;SDS011;10589;53.636;10.012;2022-09-09T19:42:29;10.17;;;7.50;;